Time;durP1;ratioP1;P1;durP2;ratioP2;P2;SDS_P1;SDS_P2;PMS_P1;PMS_P2;Temp;Humidity;BMP_temperature;BMP_pressure;BME280_temperature;BME280_humidity;BME280_pressure;Samples;Min_cycle;Max_cycle;Signal;HPM_P1;HPM_P2
2023/04/27 00:01:11;;;;;;;17.58;6.95;;;;;;;13.28;59.87;98990.56;5093854;28;20024;-76
2023/04/27 00:03:37;;;;;;;28.17;13.88;;;;;;;12.97;59.89;98953.31;5093776;28;20024;-76
2023/04/27 00:06:03;;;;;;;17.52;8.93;;;;;;;13.22;60.05;98980.78;5093659;28;20024;-76
2023/04/27 00:08:28;;;;;;;6.05;5.47;;;;;;;13.02;60.32;98953.50;5093580;28;20024;-75
2023/04/27 00:10:55;;;;;;;8.68;5.68;;;;;;;12.64;60.22;98908.34;5093497;28;20044;-76
2023/04/27 00:13:20;;;;;;;17.55;7.93;;;;;;;12.43;60.33;98882.88;5093356;28;20566;-76
2023/04/27 00:15:46;;;;;;;7.22;5.50;;;;;;;12.51;60.54;98895.09;5093336;28;20016;-76
2023/04/27 00:18:11;;;;;;;10.02;6.60;;;;;;;13.14;60.99;99001.38;5093498;28;20020;-74
2023/04/27 00:20:37;;;;;;;11.57;8.38;;;;;;;12.57;60.80;98937.44;5093439;28;20111;-76
2023/04/27 00:23:02;;;;;;;16.20;7.47;;;;;;;12.98;61.04;99010.56;5093389;28;20027;-75
2023/04/27 00:25:28;;;;;;;20.63;9.07;;;;;;;12.40;61.56;98931.75;5093059;28;20103;-75
2023/04/27 00:27:53;;;;;;;9.00;6.35;;;;;;;12.86;61.95;99013.03;5093206;28;20028;-75
2023/04/27 00:30:19;;;;;;;6.40;5.80;;;;;;;12.43;61.85;98948.25;5091941;28;20455;-76
2023/04/27 00:32:44;;;;;;;32.65;13.25;;;;;;;12.79;62.11;99025.47;5093178;28;20032;-75
2023/04/27 00:35:10;;;;;;;13.32;8.80;;;;;;;12.75;62.43;99020.78;5093111;28;20053;-75
2023/04/27 00:37:36;;;;;;;7.78;6.45;;;;;;;12.33;62.66;98953.97;5092140;28;20080;-75
2023/04/27 00:40:03;;;;;;;9.40;6.78;;;;;;;12.81;62.72;99027.91;5091737;28;20109;-75
2023/04/27 00:42:29;;;;;;;30.20;13.18;;;;;;;12.78;63.04;99047.69;5092678;28;20028;-75
2023/04/27 00:44:56;;;;;;;8.70;6.65;;;;;;;12.71;63.19;99030.97;5092571;28;20020;-75
2023/04/27 00:47:22;;;;;;;7.47;5.85;;;;;;;12.28;63.15;98969.63;5092988;28;20035;-75
2023/04/27 00:49:48;;;;;;;50.92;17.67;;;;;;;12.63;62.89;99036.44;5092861;28;20400;-76
2023/04/27 00:52:13;;;;;;;18.35;8.07;;;;;;;12.36;62.92;99001.19;5092729;28;20020;-75
2023/04/27 00:54:39;;;;;;;12.68;6.30;;;;;;;12.31;63.33;98998.34;5092554;28;20053;-76
2023/04/27 00:57:05;;;;;;;14.57;6.57;;;;;;;12.68;63.50;99049.94;5092706;28;20032;-75
2023/04/27 00:59:30;;;;;;;16.95;4.85;;;;;;;12.02;63.93;98950.06;5092747;28;20024;-75
2023/04/27 01:01:56;;;;;;;5.20;4.53;;;;;;;12.67;63.68;99066.84;5092746;28;20102;-74
2023/04/27 01:04:22;;;;;;;5.38;4.45;;;;;;;12.15;63.74;98973.09;5092568;28;20484;-75
2023/04/27 01:06:47;;;;;;;5.57;4.60;;;;;;;12.41;63.99;99025.25;5092373;28;20081;-75
2023/04/27 01:09:13;;;;;;;14.00;6.55;;;;;;;12.36;64.18;99017.91;5091317;28;20028;-74
2023/04/27 01:11:38;;;;;;;6.68;4.47;;;;;;;12.66;64.42;99060.72;5092380;28;20024;-75
2023/04/27 01:14:05;;;;;;;8.63;5.57;;;;;;;12.70;64.11;99071.72;5092451;28;20450;-76
2023/04/27 01:16:34;;;;;;;15.00;6.72;;;;;;;12.27;64.12;99013.00;5092423;28;20024;-75
2023/04/27 01:19:00;;;;;;;17.70;9.07;;;;;;;12.65;64.49;99079.47;5090896;28;20028;-76
2023/04/27 01:21:26;;;;;;;12.07;6.93;;;;;;;12.62;64.49;99082.50;5090866;28;20062;-75
2023/04/27 01:23:52;;;;;;;7.03;5.20;;;;;;;12.08;64.53;98996.91;5092302;28;20027;-75
2023/04/27 01:26:17;;;;;;;101.88;33.05;;;;;;;12.29;64.77;99021.56;5092045;28;20076;-75
2023/04/27 01:28:42;;;;;;;24.98;9.52;;;;;;;12.20;64.77;99017.47;5092059;28;20497;-75
2023/04/27 01:31:10;;;;;;;9.65;6.30;;;;;;;12.45;64.72;99068.00;5092023;28;20091;-75
2023/04/27 01:33:36;;;;;;;7.82;5.10;;;;;;;12.54;64.46;99087.97;5092073;28;20028;-75
2023/04/27 01:36:01;;;;;;;6.22;5.18;;;;;;;12.63;65.04;99111.44;5092030;28;20099;-76
2023/04/27 01:38:27;;;;;;;7.03;5.20;;;;;;;12.20;65.26;99038.66;5092015;28;20031;-74
2023/04/27 01:40:54;;;;;;;7.07;4.85;;;;;;;12.23;65.08;99065.53;5092066;28;20012;-75
2023/04/27 01:43:20;;;;;;;4.60;4.15;;;;;;;12.68;64.80;99111.66;5090575;28;20016;-75
2023/04/27 01:45:45;;;;;;;12.65;6.85;;;;;;;12.21;64.88;99037.63;5091781;28;20024;-75
2023/04/27 01:48:11;;;;;;;10.50;5.32;;;;;;;12.35;65.21;99081.63;5090192;28;20055;-76
2023/04/27 01:50:36;;;;;;;5.35;4.18;;;;;;;12.12;65.24;99047.59;5091661;28;20024;-75
2023/04/27 01:53:02;;;;;;;7.88;4.93;;;;;;;12.35;65.21;99092.22;5090252;28;20016;-75
2023/04/27 01:55:27;;;;;;;4.30;3.90;;;;;;;12.62;65.42;99122.22;5090182;28;20031;-75
2023/04/27 01:57:53;;;;;;;7.72;4.50;;;;;;;12.11;65.35;99037.19;5091553;28;20111;-75
2023/04/27 02:00:18;;;;;;;4.00;3.50;;;;;;;12.15;65.60;99047.19;5090125;28;20024;-74
2023/04/27 02:02:44;;;;;;;4.28;3.80;;;;;;;12.62;66.03;99115.09;5091738;28;20039;-75
2023/04/27 02:05:09;;;;;;;4.43;3.92;;;;;;;12.70;65.65;99136.13;5090332;28;20028;-75
2023/04/27 02:07:35;;;;;;;9.02;5.22;;;;;;;12.27;65.74;99061.47;5090230;28;20111;-75
2023/04/27 02:10:00;;;;;;;5.95;4.60;;;;;;;12.28;65.51;99078.97;5091349;28;20024;-75
2023/04/27 02:12:25;;;;;;;22.48;6.95;;;;;;;12.62;65.93;99130.97;5091626;28;20031;-75
2023/04/27 02:14:51;;;;;;;4.63;4.18;;;;;;;12.66;65.43;99137.53;5091736;28;20008;-75
2023/04/27 02:17:16;;;;;;;3.38;3.08;;;;;;;12.22;65.55;99077.13;5091339;28;20032;-75
2023/04/27 02:19:42;;;;;;;13.07;5.03;;;;;;;12.48;65.53;99123.22;5091306;28;20130;-76
2023/04/27 02:22:07;;;;;;;4.93;3.45;;;;;;;12.25;65.87;99083.84;5091481;28;20032;-75
2023/04/27 02:24:34;;;;;;;7.03;3.42;;;;;;;12.67;65.57;99149.75;5089996;28;20110;-75
2023/04/27 02:26:59;;;;;;;6.47;4.47;;;;;;;12.68;65.49;99148.75;5091041;28;20420;-75
2023/04/27 02:29:29;;;;;;;5.55;4.10;;;;;;;12.65;65.15;99145.69;5091108;28;20024;-75
2023/04/27 02:31:54;;;;;;;21.63;7.60;;;;;;;12.18;65.28;99072.44;5091240;28;20474;-75
2023/04/27 02:34:20;;;;;;;3.25;2.92;;;;;;;12.62;65.51;99154.00;5091184;28;20059;-75
2023/04/27 02:36:45;;;;;;;11.77;5.68;;;;;;;12.61;65.77;99160.31;5089850;28;20031;-75
2023/04/27 02:39:11;;;;;;;25.20;9.65;;;;;;;12.26;65.96;99104.00;5091249;28;20020;-75
2023/04/27 02:41:36;;;;;;;3.20;2.90;;;;;;;12.37;65.83;99121.97;5091127;28;20020;-75
2023/04/27 02:44:02;;;;;;;6.22;3.90;;;;;;;12.17;66.02;99092.78;5089629;28;20020;-76
2023/04/27 02:46:27;;;;;;;6.15;3.92;;;;;;;12.59;65.64;99168.47;5090968;28;20095;-75
2023/04/27 02:48:54;;;;;;;3.95;3.65;;;;;;;12.19;65.70;99108.47;5091255;28;20020;-76
2023/04/27 02:51:19;;;;;;;4.55;4.15;;;;;;;12.17;65.77;99103.38;5091359;28;20142;-76
2023/04/27 02:53:44;;;;;;;4.68;4.05;;;;;;;12.65;65.91;99191.53;5091198;28;20103;-76
2023/04/27 02:56:10;;;;;;;4.30;3.50;;;;;;;12.56;66.08;99160.09;5091073;28;20020;-76
2023/04/27 02:58:36;;;;;;;5.07;3.60;;;;;;;12.54;66.47;99165.59;5091356;28;20027;-75
2023/04/27 03:01:01;;;;;;;6.43;3.80;;;;;;;11.77;66.28;99037.06;5093201;28;20019;-75
2023/04/27 03:03:26;;;;;;;4.03;3.58;;;;;;;12.68;66.54;99179.72;5094835;28;20458;-75
2023/04/27 03:05:52;;;;;;;3.35;2.95;;;;;;;12.24;65.70;99127.22;5094560;28;20020;-76
2023/04/27 03:08:17;;;;;;;6.28;4.00;;;;;;;12.62;66.03;99189.25;5094631;28;20020;-76
2023/04/27 03:10:43;;;;;;;8.60;4.35;;;;;;;12.58;65.45;99182.72;5094849;28;20028;-76
2023/04/27 03:13:08;;;;;;;3.40;2.92;;;;;;;12.23;65.78;99147.59;5094670;28;20028;-76
2023/04/27 03:15:34;;;;;;;5.43;2.90;;;;;;;12.66;65.83;99209.06;5093372;28;20016;-76
2023/04/27 03:17:59;;;;;;;3.75;3.00;;;;;;;12.12;66.10;99131.44;5093297;28;20016;-76
2023/04/27 03:20:25;;;;;;;2.83;2.63;;;;;;;12.66;66.14;99201.09;5093231;28;20442;-76
2023/04/27 03:22:50;;;;;;;5.00;4.50;;;;;;;12.37;66.29;99170.44;5094517;28;20023;-75
2023/04/27 03:25:16;;;;;;;21.48;6.57;;;;;;;12.23;65.91;99160.00;5094448;28;20016;-76
2023/04/27 03:27:42;;;;;;;14.93;5.63;;;;;;;12.56;65.82;99208.59;5094215;28;20101;-76
2023/04/27 03:30:08;;;;;;;8.18;5.20;;;;;;;12.53;66.17;99216.09;5094148;28;20047;-76
2023/04/27 03:32:33;;;;;;;6.20;5.60;;;;;;;12.07;65.96;99156.69;5094387;28;20036;-76
2023/04/27 03:34:59;;;;;;;11.90;6.88;;;;;;;12.49;65.72;99217.53;5094494;28;20559;-76
2023/04/27 03:37:25;;;;;;;8.02;7.18;;;;;;;12.50;65.75;99221.81;5094078;28;20020;-76
2023/04/27 03:39:51;;;;;;;7.32;6.70;;;;;;;12.50;66.15;99225.25;5092674;28;20054;-76
2023/04/27 03:42:17;;;;;;;10.38;7.60;;;;;;;12.46;66.26;99220.56;5094155;28;20020;-76
2023/04/27 03:44:42;;;;;;;17.00;8.65;;;;;;;12.34;65.87;99220.31;5092889;28;20031;-76
2023/04/27 03:47:08;;;;;;;8.27;7.43;;;;;;;12.21;65.93;99193.78;5093930;28;20055;-76
2023/04/27 03:49:36;;;;;;;10.48;8.23;;;;;;;12.12;66.38;99181.72;5094074;28;20020;-76
2023/04/27 03:52:02;;;;;;;8.15;7.30;;;;;;;12.51;66.34;99240.13;5093905;28;20020;-76
2023/04/27 03:54:28;;;;;;;7.78;6.97;;;;;;;12.39;66.34;99225.84;5093964;28;20024;-76
2023/04/27 03:56:53;;;;;;;10.05;7.70;;;;;;;12.15;66.67;99181.34;5093791;28;20463;-76
2023/04/27 03:59:18;;;;;;;9.88;7.72;;;;;;;12.59;66.43;99252.38;5093656;28;20032;-76
2023/04/27 04:01:44;;;;;;;8.95;8.07;;;;;;;12.22;66.52;99192.78;5093534;28;20104;-76
2023/04/27 04:04:10;;;;;;;15.98;9.65;;;;;;;12.11;66.27;99164.22;5093471;28;20082;-76
2023/04/27 04:06:35;;;;;;;10.20;7.78;;;;;;;12.61;66.19;99253.81;5093466;28;20016;-76
2023/04/27 04:09:00;;;;;;;6.28;5.78;;;;;;;12.63;66.58;99249.19;5093815;28;20081;-76
2023/04/27 04:11:26;;;;;;;7.60;6.88;;;;;;;12.55;66.04;99240.56;5093572;28;20028;-76
2023/04/27 04:13:51;;;;;;;8.70;7.47;;;;;;;12.62;66.38;99260.75;5093488;28;20020;-76
2023/04/27 04:16:17;;;;;;;18.50;8.57;;;;;;;12.64;66.07;99263.25;5093602;28;20016;-76
2023/04/27 04:18:42;;;;;;;8.18;6.68;;;;;;;12.54;66.00;99245.03;5093480;28;20035;-76
2023/04/27 04:21:10;;;;;;;7.03;6.43;;;;;;;12.66;65.84;99269.97;5093465;28;20031;-76
2023/04/27 04:23:36;;;;;;;6.63;6.00;;;;;;;12.65;66.11;99254.28;5093438;28;20512;-76
2023/04/27 04:26:01;;;;;;;12.95;6.38;;;;;;;12.06;65.57;99215.09;5093166;28;20048;-76
2023/04/27 04:28:27;;;;;;;7.05;5.57;;;;;;;12.40;65.53;99233.56;5093351;28;20412;-76
2023/04/27 04:30:52;;;;;;;8.48;6.10;;;;;;;12.57;65.48;99252.59;5093251;28;20032;-76
2023/04/27 04:33:18;;;;;;;17.00;7.68;;;;;;;12.27;65.55;99199.09;5093159;28;20020;-76
2023/04/27 04:35:44;;;;;;;17.50;8.15;;;;;;;12.76;65.67;99276.72;5093297;28;20481;-76
2023/04/27 04:38:09;;;;;;;16.90;6.95;;;;;;;12.33;65.71;99206.25;5093348;28;20489;-76
2023/04/27 04:40:37;;;;;;;6.80;5.38;;;;;;;12.78;65.30;99272.03;5092879;28;20024;-76
2023/04/27 04:43:03;;;;;;;12.80;5.43;;;;;;;12.80;65.49;99292.03;5092825;28;20169;-76
2023/04/27 04:45:29;;;;;;;9.98;6.53;;;;;;;12.30;65.39;99200.53;5092736;28;20560;-76
2023/04/27 04:47:54;;;;;;;11.00;5.30;;;;;;;12.81;65.33;99291.00;5092860;28;20024;-76
2023/04/27 04:50:20;;;;;;;6.13;4.32;;;;;;;12.76;65.23;99298.75;5092675;28;20024;-76
2023/04/27 04:52:46;;;;;;;4.50;4.10;;;;;;;12.35;65.52;99235.19;5092708;28;20016;-76
2023/04/27 04:55:11;;;;;;;8.05;4.35;;;;;;;12.30;65.24;99229.66;5092579;28;20498;-77
2023/04/27 04:57:37;;;;;;;4.30;3.33;;;;;;;12.77;65.40;99297.72;5092585;28;20023;-75
2023/04/27 05:00:11;;;;;;;4.30;3.90;;;;;;;12.61;65.38;99287.44;5092502;28;20020;-76
2023/04/27 05:02:36;;;;;;;9.13;4.22;;;;;;;12.53;65.33;99271.72;5092414;28;20043;-75
2023/04/27 05:05:02;;;;;;;5.28;4.45;;;;;;;12.44;65.09;99257.84;5092336;28;20099;-76
2023/04/27 05:07:27;;;;;;;5.28;4.30;;;;;;;12.78;65.20;99317.91;5092337;28;20504;-76
2023/04/27 05:09:53;;;;;;;5.50;4.53;;;;;;;12.52;65.40;99276.19;5092488;28;20023;-76
2023/04/27 05:12:19;;;;;;;6.38;5.82;;;;;;;12.53;65.35;99275.19;5092546;28;20047;-75
2023/04/27 05:14:44;;;;;;;7.78;4.13;;;;;;;12.89;65.34;99335.88;5092427;28;20073;-76
2023/04/27 05:17:09;;;;;;;4.05;3.22;;;;;;;12.59;65.35;99285.00;5092298;28;20024;-76
2023/04/27 05:19:35;;;;;;;14.25;4.65;;;;;;;12.96;65.43;99326.13;5092107;28;20052;-77
2023/04/27 05:22:00;;;;;;;5.75;2.30;;;;;;;12.88;65.00;99312.22;5092161;28;20039;-77
2023/04/27 05:24:26;;;;;;;2.05;1.85;;;;;;;12.69;65.02;99277.53;5091282;28;20030;-76
2023/04/27 05:26:51;;;;;;;2.92;2.08;;;;;;;12.54;64.86;99254.81;5090144;28;20040;-76
2023/04/27 05:29:17;;;;;;;1.70;1.50;;;;;;;12.66;64.95;99274.44;5091719;28;20104;-74
2023/04/27 05:31:42;;;;;;;9.00;3.88;;;;;;;12.63;64.14;99280.13;5091844;28;20012;-76
2023/04/27 05:34:08;;;;;;;122.53;34.42;;;;;;;12.79;63.80;99287.75;5091873;28;20506;-77
2023/04/27 05:36:34;;;;;;;6.72;2.15;;;;;;;13.04;62.89;99341.03;5091493;28;20019;-74
2023/04/27 05:39:00;;;;;;;29.30;9.00;;;;;;;12.79;62.59;99301.00;5091673;28;20051;-76
2023/04/27 05:41:26;;;;;;;2.65;1.00;;;;;;;13.03;62.39;99342.03;5081652;28;20051;-77
2023/04/27 05:43:52;;;;;;;3.15;1.73;;;;;;;12.91;62.61;99317.13;5090562;28;20485;-78
2023/04/27 05:46:17;;;;;;;2.83;1.65;;;;;;;12.94;62.23;99314.09;5100566;28;20032;-76
2023/04/27 05:48:43;;;;;;;4.82;2.17;;;;;;;12.99;61.95;99320.44;5091440;28;21119;-77
2023/04/27 05:51:08;;;;;;;4.18;1.95;;;;;;;12.65;61.80;99254.28;5090550;28;20028;-76
2023/04/27 05:53:34;;;;;;;24.92;7.50;;;;;;;12.68;61.56;99243.28;5091533;28;20024;-75
2023/04/27 05:56:00;;;;;;;22.23;6.43;;;;;;;12.94;60.97;99284.94;5091715;28;20465;-75
2023/04/27 05:58:26;;;;;;;9.82;3.80;;;;;;;13.30;61.34;99343.78;5090282;28;20023;-76
2023/04/27 06:00:54;;;;;;;26.08;5.50;;;;;;;13.40;61.24;99343.44;5091275;28;20024;-77
2023/04/27 06:03:20;;;;;;;3.22;1.08;;;;;;;12.93;60.78;99278.00;5091470;28;20012;-76
2023/04/27 06:05:45;;;;;;;15.23;4.53;;;;;;;13.08;60.30;99281.31;5091380;28;20031;-77
2023/04/27 06:08:11;;;;;;;11.13;2.58;;;;;;;13.52;60.46;99346.31;5091109;28;20028;-77
2023/04/27 06:10:38;;;;;;;6.20;3.75;;;;;;;13.48;60.28;99345.91;5088407;28;20032;-76
2023/04/27 06:13:03;;;;;;;3.92;2.33;;;;;;;13.02;60.74;99276.81;5086445;28;20040;-76
2023/04/27 06:15:28;;;;;;;5.25;1.92;;;;;;;13.05;60.85;99285.19;5096942;28;20534;-77
2023/04/27 06:17:54;;;;;;;4.30;1.95;;;;;;;13.49;60.45;99339.56;5098899;28;20024;-76
2023/04/27 06:20:19;;;;;;;3.45;1.85;;;;;;;12.97;60.07;99263.34;5103300;28;20024;-77
2023/04/27 06:22:45;;;;;;;22.52;4.93;;;;;;;12.94;60.40;99277.81;5108899;28;20019;-77
2023/04/27 06:25:11;;;;;;;94.88;24.25;;;;;;;13.48;60.10;99347.72;5092249;28;20389;-78
2023/04/27 06:27:36;;;;;;;3.13;1.48;;;;;;;13.18;60.32;99302.16;5091147;28;20052;-77
2023/04/27 06:30:02;;;;;;;203.95;58.63;;;;;;;13.44;60.10;99335.88;5085836;28;20092;-76
2023/04/27 06:32:27;;;;;;;4.43;2.42;;;;;;;12.96;60.10;99267.00;5089788;28;20035;-76
2023/04/27 06:34:53;;;;;;;7.95;2.28;;;;;;;13.21;60.08;99299.91;5090102;28;20085;-76
2023/04/27 06:37:18;;;;;;;16.85;3.17;;;;;;;12.82;60.03;99242.31;5101305;28;20020;-77
2023/04/27 06:39:44;;;;;;;1.65;1.33;;;;;;;13.19;59.69;99309.91;5109253;28;20046;-77
2023/04/27 06:42:10;;;;;;;14.60;4.88;;;;;;;13.38;59.82;99324.25;5096561;28;20103;-77
2023/04/27 06:44:35;;;;;;;11.98;2.67;;;;;;;13.35;59.70;99317.50;5095451;28;20071;-77
2023/04/27 06:47:01;;;;;;;18.88;7.25;;;;;;;13.04;59.15;99264.16;5115700;28;20047;-77
2023/04/27 06:49:26;;;;;;;24.83;7.22;;;;;;;13.62;59.32;99358.16;5113869;28;20750;-76
2023/04/27 06:51:52;;;;;;;1.98;1.10;;;;;;;13.35;59.09;99300.75;5096086;28;20104;-76
2023/04/27 06:54:17;;;;;;;1.10;0.90;;;;;;;13.77;58.48;99357.97;5092480;28;20028;-77
2023/04/27 06:56:43;;;;;;;2.88;1.70;;;;;;;13.86;58.17;99370.03;5101181;28;20051;-77
2023/04/27 06:59:09;;;;;;;1.50;1.40;;;;;;;14.07;58.03;99384.94;5101024;28;20110;-76
2023/04/27 07:01:34;;;;;;;6.18;2.90;;;;;;;14.16;57.99;99374.94;5100903;28;20171;-76
2023/04/27 07:04:00;;;;;;;6.18;2.00;;;;;;;13.99;57.67;99354.09;5091161;28;20058;-77
2023/04/27 07:06:25;;;;;;;3.35;2.80;;;;;;;13.65;57.92;99298.56;5103167;28;20031;-77
2023/04/27 07:08:51;;;;;;;9.88;6.53;;;;;;;13.93;57.77;99344.28;5094622;28;20095;-76
2023/04/27 07:11:16;;;;;;;9.23;3.55;;;;;;;14.08;57.41;99352.06;5093552;28;20070;-76
2023/04/27 07:13:42;;;;;;;5.93;1.98;;;;;;;13.60;57.07;99274.50;5093611;28;20028;-76
2023/04/27 07:16:08;;;;;;;5.85;3.97;;;;;;;13.69;57.10;99294.50;5092781;28;20409;-77
2023/04/27 07:18:33;;;;;;;2.13;1.83;;;;;;;14.26;56.97;99391.28;5094072;28;20023;-73
2023/04/27 07:20:58;;;;;;;5.40;2.80;;;;;;;13.69;56.42;99310.41;5093778;28;20474;-75
2023/04/27 07:23:24;;;;;;;12.02;5.90;;;;;;;13.85;56.32;99322.44;5092755;28;20100;-76
2023/04/27 07:25:50;;;;;;;9.68;4.40;;;;;;;13.57;55.98;99288.97;5092501;28;20048;-77
2023/04/27 07:28:16;;;;;;;6.30;3.97;;;;;;;13.76;55.77;99323.69;5093252;28;20496;-73
2023/04/27 07:30:41;;;;;;;10.23;5.95;;;;;;;13.75;56.22;99317.56;5093846;28;20055;-74
2023/04/27 07:33:08;;;;;;;8.00;3.30;;;;;;;13.85;56.35;99325.09;5093973;28;20024;-77
2023/04/27 07:35:34;;;;;;;5.35;3.75;;;;;;;14.33;56.13;99394.75;5093719;28;20027;-77
2023/04/27 07:38:03;;;;;;;11.43;3.90;;;;;;;14.21;55.56;99373.31;5094046;28;20416;-76
2023/04/27 07:40:29;;;;;;;9.27;6.47;;;;;;;14.12;55.72;99381.66;5092689;28;20031;-76
2023/04/27 07:42:55;;;;;;;5.20;3.20;;;;;;;13.95;55.70;99342.25;5091973;28;20055;-76
2023/04/27 07:45:21;;;;;;;12.45;5.72;;;;;;;14.30;55.37;99401.28;5091935;28;20121;-77
2023/04/27 07:47:47;;;;;;;5.10;3.17;;;;;;;13.80;54.83;99325.72;5089069;28;20542;-76
2023/04/27 07:50:16;;;;;;;3.95;2.08;;;;;;;13.80;54.55;99324.91;5087179;28;20283;-76
2023/04/27 07:52:42;;;;;;;11.70;3.85;;;;;;;14.30;54.78;99400.47;5110246;28;20565;-76
2023/04/27 07:55:08;;;;;;;6.22;4.57;;;;;;;14.08;54.79;99391.06;5098232;28;20040;-77
2023/04/27 07:57:34;;;;;;;13.45;4.45;;;;;;;14.05;54.40;99364.91;5090386;28;20028;-77
2023/04/27 08:00:00;;;;;;;11.02;2.50;;;;;;;13.84;54.55;99321.63;5094601;28;20058;-76
2023/04/27 08:02:30;;;;;;;2.15;1.90;;;;;;;14.38;54.44;99407.41;5090949;28;20024;-76
2023/04/27 08:04:56;;;;;;;9.57;3.50;;;;;;;13.81;53.96;99322.03;5100429;28;20028;-77
2023/04/27 08:07:21;;;;;;;1.63;1.50;;;;;;;14.02;53.54;99352.06;5102700;28;20042;-76
2023/04/27 08:09:51;;;;;;;18.45;5.90;;;;;;;14.31;52.95;99421.50;5113756;28;20031;-77
2023/04/27 08:12:16;;;;;;;2.38;1.90;;;;;;;14.19;53.39;99395.78;5106333;27;20419;-76
2023/04/27 08:14:41;;;;;;;21.08;4.47;;;;;;;13.68;53.18;99325.50;5095259;27;20036;-77
2023/04/27 08:17:07;;;;;;;4.75;3.20;;;;;;;13.68;53.49;99327.34;5105009;28;20027;-76
2023/04/27 08:19:33;;;;;;;2.85;2.50;;;;;;;14.06;53.49;99388.59;5097828;28;20046;-76
2023/04/27 08:21:59;;;;;;;3.40;2.58;;;;;;;13.86;53.54;99364.72;5089083;28;20059;-76
2023/04/27 08:24:25;;;;;;;4.97;2.83;;;;;;;13.91;53.43;99367.56;5107561;28;20023;-76
2023/04/27 08:26:50;;;;;;;4.13;2.90;;;;;;;13.32;53.65;99327.69;5096651;28;20044;-76
2023/04/27 08:29:16;;;;;;;36.75;9.57;;;;;;;13.70;53.55;99351.03;5090459;28;20054;-76
2023/04/27 08:31:41;;;;;;;2.90;2.60;;;;;;;13.68;53.45;99349.38;5095903;28;20028;-76
2023/04/27 08:34:07;;;;;;;3.00;2.22;;;;;;;13.80;53.06;99381.44;5084302;28;20115;-76
2023/04/27 08:36:33;;;;;;;34.63;9.55;;;;;;;13.55;53.10;99349.38;5085330;28;20428;-77
2023/04/27 08:38:58;;;;;;;11.90;4.35;;;;;;;13.98;53.07;99408.22;5088918;28;20461;-76
2023/04/27 08:41:24;;;;;;;7.63;5.43;;;;;;;13.91;53.23;99388.00;5092183;28;20106;-75
2023/04/27 08:43:50;;;;;;;28.35;8.80;;;;;;;14.18;52.93;99410.91;5090467;28;20027;-77
2023/04/27 08:46:27;;;;;;;4.65;3.50;;;;;;;14.14;52.78;99392.91;5087926;28;20420;-77
2023/04/27 08:48:53;;;;;;;12.63;5.05;;;;;;;14.18;52.53;99400.28;5087492;28;20043;-75
2023/04/27 08:51:20;;;;;;;17.90;6.68;;;;;;;14.28;52.51;99413.13;5090493;28;20023;-77
2023/04/27 08:53:54;;;;;;;27.27;9.82;;;;;;;14.40;52.15;99413.34;5092189;28;20085;-76
2023/04/27 08:56:24;;;;;;;165.55;40.53;;;;;;;14.44;51.85;99404.78;5091970;28;20095;-77
2023/04/27 08:58:54;;;;;;;31.42;9.10;;;;;;;14.55;51.23;99408.66;5090313;28;20051;-76
2023/04/27 09:01:20;;;;;;;4.65;3.20;;;;;;;14.49;51.77;99362.47;5092257;28;20027;-77
2023/04/27 09:03:46;;;;;;;3.38;2.70;;;;;;;14.18;51.34;99293.25;5091950;28;20036;-76
2023/04/27 09:06:13;;;;;;;5.72;3.58;;;;;;;14.56;50.69;99331.38;5089563;28;20024;-76
2023/04/27 09:08:42;;;;;;;7.57;5.63;;;;;;;15.14;50.57;99395.22;5072263;28;20032;-75
2023/04/27 09:11:08;;;;;;;6.80;3.53;;;;;;;15.24;50.30;99376.97;5083755;28;20039;-76
2023/04/27 09:13:38;;;;;;;17.25;7.28;;;;;;;15.44;49.83;99397.31;5092273;28;20032;-75
2023/04/27 09:16:04;;;;;;;6.10;3.50;;;;;;;15.32;49.96;99351.13;5091917;28;20027;-76
2023/04/27 09:18:33;;;;;;;4.40;3.50;;;;;;;15.35;49.22;99313.47;5091188;28;20070;-76
2023/04/27 09:20:59;;;;;;;4.50;3.65;;;;;;;15.89;48.95;99384.81;5091411;28;20056;-76
2023/04/27 09:23:32;;;;;;;17.17;6.45;;;;;;;16.09;48.12;99387.31;5090379;28;20401;-76
2023/04/27 09:25:59;;;;;;;13.25;5.25;;;;;;;15.51;47.81;99286.34;5091777;28;20575;-75
2023/04/27 09:28:26;;;;;;;10.77;5.22;;;;;;;16.20;47.94;99376.75;5091798;28;20092;-75
2023/04/27 09:30:56;;;;;;;6.05;4.07;;;;;;;16.20;47.71;99350.13;5091724;28;20085;-77
2023/04/27 09:33:30;;;;;;;6.38;4.18;;;;;;;15.94;47.01;99285.63;5091513;28;20153;-76
2023/04/27 09:35:58;;;;;;;9.85;4.32;;;;;;;16.51;46.42;99353.75;5091975;28;20077;-76
2023/04/27 09:38:24;;;;;;;11.98;5.53;;;;;;;16.19;46.38;99329.03;5077060;28;20028;-76
2023/04/27 09:40:52;;;;;;;7.05;4.05;;;;;;;16.75;46.43;99371.56;5066959;28;20481;-76
2023/04/27 09:43:18;;;;;;;33.42;8.55;;;;;;;16.52;45.70;99324.22;5098616;28;20507;-76
2023/04/27 09:45:43;;;;;;;24.85;6.63;;;;;;;16.63;45.85;99322.66;5092534;28;20150;-76
2023/04/27 09:48:12;;;;;;;8.00;4.32;;;;;;;17.07;45.19;99372.19;5091675;28;20031;-74
2023/04/27 09:50:43;;;;;;;22.08;9.57;;;;;;;17.20;44.99;99373.09;5091292;28;20032;-75
2023/04/27 09:53:10;;;;;;;8.43;5.43;;;;;;;17.57;44.57;99365.81;5088128;28;20089;-77
2023/04/27 09:55:46;;;;;;;73.90;20.10;;;;;;;17.87;43.03;99363.16;5088622;28;20089;-75
2023/04/27 09:58:50;;;;;;;19.52;7.50;;;;;;;17.85;42.65;99368.75;5110258;28;20027;-77
2023/04/27 10:01:33;;;;;;;39.42;13.95;;;;;;;17.79;42.86;99374.97;5108003;28;20115;-77
2023/04/27 10:04:29;;;;;;;12.23;6.15;;;;;;;17.46;43.20;99325.53;5111664;28;20514;-76
2023/04/27 10:07:03;;;;;;;5.97;4.20;;;;;;;18.20;41.25;99355.41;5111438;28;20491;-74
2023/04/27 10:09:50;;;;;;;4.43;4.03;;;;;;;17.92;42.49;99304.53;5111284;28;20027;-75
2023/04/27 10:12:20;;;;;;;4.78;4.28;;;;;;;18.45;42.53;99367.72;5111175;28;20085;-75
2023/04/27 10:14:56;;;;;;;5.22;4.45;;;;;;;18.64;42.06;99348.69;5111448;28;20073;-75
2023/04/27 10:17:29;;;;;;;9.45;5.40;;;;;;;18.90;42.23;99362.59;5110292;28;20046;-77
2023/04/27 10:20:00;;;;;;;27.60;7.95;;;;;;;19.13;40.83;99367.06;5111423;28;20089;-75
2023/04/27 10:22:42;;;;;;;7.13;5.77;;;;;;;19.39;41.46;99369.22;5110261;28;20039;-76
2023/04/27 10:25:27;;;;;;;7.40;5.22;;;;;;;19.45;40.40;99340.66;5110215;28;20269;-76
2023/04/27 10:28:03;;;;;;;6.47;5.50;;;;;;;19.23;41.03;99303.03;5111512;28;20048;-76
2023/04/27 10:30:34;;;;;;;7.30;6.60;;;;;;;19.45;41.12;99343.34;5111231;28;20036;-75
2023/04/27 10:33:04;;;;;;;8.43;7.47;;;;;;;19.56;41.17;99356.72;5111365;28;20100;-76
2023/04/27 10:35:41;;;;;;;7.40;5.77;;;;;;;19.08;41.07;99316.13;5111558;28;20507;-76
2023/04/27 10:38:17;;;;;;;9.85;6.30;;;;;;;18.57;41.41;99315.06;5111311;28;20036;-76
2023/04/27 10:40:44;;;;;;;7.57;6.90;;;;;;;19.21;41.34;99369.38;5111076;28;20099;-77
2023/04/27 10:43:15;;;;;;;12.00;7.50;;;;;;;19.20;41.11;99368.56;5087972;28;20052;-74
2023/04/27 10:45:42;;;;;;;10.82;5.95;;;;;;;19.25;40.90;99362.50;5089477;28;20057;-75
2023/04/27 10:48:08;;;;;;;7.57;6.07;;;;;;;19.03;40.92;99325.69;5089864;28;20028;-77
2023/04/27 10:50:34;;;;;;;12.00;7.55;;;;;;;19.11;40.50;99308.44;5081092;28;20421;-76
2023/04/27 10:53:05;;;;;;;9.23;7.43;;;;;;;19.65;39.66;99312.41;5070411;28;20032;-75
2023/04/27 10:55:32;;;;;;;7.30;6.45;;;;;;;20.44;39.36;99365.13;5088734;28;20031;-75
2023/04/27 10:57:58;;;;;;;7.05;6.30;;;;;;;20.24;38.50;99285.19;5090936;28;20024;-76
2023/04/27 11:00:26;;;;;;;8.60;6.38;;;;;;;20.51;38.39;99344.31;5103281;28;20023;-75
2023/04/27 11:02:54;;;;;;;8.30;6.65;;;;;;;20.03;39.01;99324.25;5090702;28;20484;-76
2023/04/27 11:05:28;;;;;;;9.00;6.82;;;;;;;19.89;39.46;99355.94;5088536;28;20032;-75
2023/04/27 11:08:04;;;;;;;15.05;9.63;;;;;;;19.56;40.33;99359.38;5088131;28;20024;-75
2023/04/27 11:10:30;;;;;;;14.43;8.20;;;;;;;19.13;40.51;99337.63;5083493;28;20028;-75
2023/04/27 11:12:55;;;;;;;13.55;8.43;;;;;;;18.74;40.74;99310.66;5089288;28;20024;-77
2023/04/27 11:15:21;;;;;;;8.43;7.07;;;;;;;18.74;40.64;99299.97;5089953;28;20020;-77
2023/04/27 11:17:46;;;;;;;9.30;8.18;;;;;;;18.90;40.62;99312.59;5089437;28;20498;-76
2023/04/27 11:20:13;;;;;;;12.27;9.43;;;;;;;19.67;40.12;99337.09;5095382;28;20107;-76
2023/04/27 11:22:45;;;;;;;15.55;9.77;;;;;;;20.19;39.23;99355.63;5093109;28;20024;-75
2023/04/27 11:25:11;;;;;;;8.77;6.65;;;;;;;20.36;38.74;99314.56;5073996;28;20016;-73
2023/04/27 11:27:38;;;;;;;14.98;9.88;;;;;;;21.00;38.45;99345.22;5079293;28;20051;-77